createdAt,value
2022-09-28T00:00:19.183Z,95977.19
2022-09-28T00:02:45.854Z,95983.16
2022-09-28T00:05:12.731Z,95977.19
2022-09-28T00:07:39.237Z,95971.19
2022-09-28T00:10:06.003Z,95969.47
2022-09-28T00:12:32.476Z,95960.94
2022-09-28T00:14:58.932Z,95966.06
2022-09-28T00:17:26.493Z,95967.78
2022-09-28T00:19:52.963Z,95955.81
2022-09-28T00:24:59.878Z,95943.84
2022-09-28T00:27:26.410Z,95947.28
2022-09-28T00:29:52.928Z,95934.47
2022-09-28T00:32:21.500Z,95931.03
2022-09-28T00:34:48.930Z,95919.91
2022-09-28T00:37:15.434Z,95914.78
2022-09-28T00:39:41.906Z,95912.22
2022-09-28T00:42:18.244Z,95906.28
2022-09-28T00:44:47.276Z,95902.84
2022-09-28T00:47:35.397Z,95905.41
2022-09-28T00:50:15.025Z,95899.41
2022-09-28T00:52:41.388Z,95893.44
2022-09-28T00:55:09.998Z,95890.00
2022-09-28T00:57:37.263Z,95882.31
2022-09-28T01:00:04.300Z,95887.47
2022-09-28T01:02:30.820Z,95863.53
2022-09-28T01:04:57.907Z,95871.22
2022-09-28T01:07:24.451Z,95869.50
2022-09-28T01:09:50.943Z,95872.94
2022-09-28T01:12:17.802Z,95861.81
2022-09-28T01:14:44.630Z,95862.69
2022-09-28T01:17:14.820Z,95855.00
2022-09-28T01:19:56.365Z,95854.13
2022-09-28T01:22:34.916Z,95840.44
2022-09-28T01:25:07.342Z,95850.69
2022-09-28T01:27:37.329Z,95837.06
2022-09-28T01:30:05.892Z,95828.50
2022-09-28T01:32:36.867Z,95826.81
2022-09-28T01:35:22.649Z,95823.38
2022-09-28T01:37:54.496Z,95824.22
2022-09-28T01:40:22.477Z,95819.09
2022-09-28T01:42:51.538Z,95816.53
2022-09-28T01:45:22.029Z,95819.09
2022-09-28T01:47:48.540Z,95810.56
2022-09-28T01:50:18.223Z,95813.97
2022-09-28T01:52:46.065Z,95788.34
2022-09-28T01:55:23.486Z,95790.91
2022-09-28T01:58:05.548Z,95775.53
2022-09-28T02:00:32.604Z,95769.53
2022-09-28T02:03:04.649Z,95770.41
2022-09-28T02:05:33.647Z,95760.97
2022-09-28T02:08:10.034Z,95770.41
2022-09-28T02:11:03.652Z,95745.59
2022-09-28T02:13:33.791Z,95737.94
2022-09-28T02:16:06.690Z,95737.91
2022-09-28T02:18:33.410Z,95723.41
2022-09-28T02:21:03.207Z,95721.69
2022-09-28T02:23:29.679Z,95719.97
2022-09-28T02:26:04.009Z,95720.81
2022-09-28T02:28:30.508Z,95702.88
2022-09-28T02:30:57.099Z,95702.00
2022-09-28T02:33:26.312Z,95691.75
2022-09-28T02:35:52.784Z,95680.69
2022-09-28T02:38:19.274Z,95681.50
2022-09-28T02:41:21.259Z,95673.00
2022-09-28T02:44:03.660Z,95677.25
2022-09-28T02:46:49.728Z,95665.31
2022-09-28T02:49:35.071Z,95668.69
2022-09-28T02:52:15.576Z,95660.19
2022-09-28T02:55:10.076Z,95655.06
2022-09-28T02:57:41.133Z,95661.88
2022-09-28T03:00:18.696Z,95667.88
2022-09-28T03:03:05.804Z,95646.50
2022-09-28T03:05:41.212Z,95645.66
2022-09-28T03:08:17.307Z,95634.59
2022-09-28T03:10:51.896Z,95637.94
2022-09-28T03:13:18.363Z,95630.28
2022-09-28T03:15:48.662Z,95620.91
2022-09-28T03:18:15.976Z,95612.34
2022-09-28T03:20:42.542Z,95605.50
2022-09-28T03:23:25.441Z,95609.75
2022-09-28T03:25:52.172Z,95609.75
2022-09-28T03:28:18.673Z,95610.63
2022-09-28T03:30:45.367Z,95603.81
2022-09-28T03:33:11.863Z,95602.94
2022-09-28T03:35:38.334Z,95589.28
2022-09-28T03:38:04.815Z,95594.38
2022-09-28T03:40:31.388Z,95584.13
2022-09-28T03:42:59.809Z,95583.31
2022-09-28T03:45:26.313Z,95573.06
2022-09-28T03:47:52.860Z,95575.63
2022-09-28T03:50:19.326Z,95576.44
2022-09-28T03:52:45.854Z,95567.06
2022-09-28T03:55:12.410Z,95563.63
2022-09-28T03:57:38.882Z,95550.81
2022-09-28T04:00:05.755Z,95552.59
2022-09-28T04:02:32.367Z,95550.00
2022-09-28T04:04:58.915Z,95544.03
2022-09-28T04:07:29.038Z,95550.00
2022-09-28T04:09:57.539Z,95545.69
2022-09-28T04:12:24.056Z,95544.84
2022-09-28T04:14:50.914Z,95539.75
2022-09-28T04:17:17.416Z,95533.75
2022-09-28T04:19:43.895Z,95531.19
2022-09-28T04:22:10.424Z,95525.19
2022-09-28T04:24:36.947Z,95517.50
2022-09-28T04:27:21.952Z,95514.09
2022-09-28T04:29:48.420Z,95517.50
2022-09-28T04:32:14.894Z,95512.38
2022-09-28T04:34:44.139Z,95508.13
2022-09-28T04:37:11.010Z,95512.38
2022-09-28T04:39:37.538Z,95508.13
2022-09-28T04:42:04.024Z,95513.25
2022-09-28T04:44:30.574Z,95509.81
2022-09-28T04:46:58.247Z,95508.13
2022-09-28T04:49:27.120Z,95510.69
2022-09-28T04:51:53.588Z,95505.56
2022-09-28T04:54:20.230Z,95506.41
2022-09-28T04:56:46.695Z,95507.25
2022-09-28T04:59:13.497Z,95500.44
2022-09-28T05:01:40.158Z,95503.00
2022-09-28T05:04:06.688Z,95496.16
2022-09-28T05:06:33.199Z,95492.75
2022-09-28T05:08:59.748Z,95497.00
2022-09-28T05:11:26.554Z,95491.03
2022-09-28T05:13:53.112Z,95494.44
2022-09-28T05:16:20.457Z,95489.31
2022-09-28T05:18:47.391Z,95494.44
2022-09-28T05:21:14.700Z,95491.88
2022-09-28T05:23:43.655Z,95490.19
2022-09-28T05:26:10.174Z,95488.50
2022-09-28T05:28:36.672Z,95489.31
2022-09-28T05:31:03.815Z,95499.56
2022-09-28T05:33:31.070Z,95479.09
2022-09-28T05:36:01.108Z,95488.50
2022-09-28T05:38:28.426Z,95481.63
2022-09-28T05:40:55.000Z,95478.25
2022-09-28T05:43:21.544Z,95483.38
2022-09-28T05:45:52.917Z,95469.69
2022-09-28T05:48:21.740Z,95467.97
2022-09-28T05:50:52.393Z,95473.13
2022-09-28T05:53:18.977Z,95481.63
2022-09-28T05:55:45.612Z,95473.94
2022-09-28T05:58:12.157Z,95474.81
2022-09-28T06:00:38.678Z,95460.38
2022-09-28T06:03:10.486Z,95463.75
2022-09-28T06:05:37.540Z,95470.53
2022-09-28T06:08:05.203Z,95479.94
2022-09-28T06:10:31.979Z,95472.25
2022-09-28T06:12:58.491Z,95467.97
2022-09-28T06:15:26.263Z,95464.56
2022-09-28T06:18:19.202Z,95481.63
2022-09-28T06:20:45.701Z,95476.50
2022-09-28T06:23:12.756Z,95482.47
2022-09-28T06:25:39.473Z,95478.22
2022-09-28T06:28:15.187Z,95483.34
2022-09-28T06:30:42.376Z,95488.44
2022-09-28T06:33:16.294Z,95472.28
2022-09-28T06:35:42.839Z,95483.34
2022-09-28T06:38:09.428Z,95491.00
2022-09-28T06:40:36.265Z,95483.34
2022-09-28T06:43:20.981Z,95483.34
2022-09-28T06:45:51.383Z,95483.34
2022-09-28T06:48:17.973Z,95485.91
2022-09-28T06:50:44.967Z,95495.28
2022-09-28T06:53:13.553Z,95488.44
2022-09-28T06:55:46.019Z,95479.94
2022-09-28T06:58:13.988Z,95496.97
2022-09-28T07:00:40.684Z,95496.13
2022-09-28T07:03:17.860Z,95499.53
2022-09-28T07:05:48.832Z,95500.38
2022-09-28T07:08:15.875Z,95498.69
2022-09-28T07:10:43.505Z,95501.28
2022-09-28T07:13:25.169Z,95506.38
2022-09-28T07:15:57.187Z,95508.94
2022-09-28T07:18:24.326Z,95523.44
2022-09-28T07:20:54.439Z,95530.28
2022-09-28T07:23:21.244Z,95537.97
2022-09-28T07:25:48.799Z,95537.16
2022-09-28T07:28:16.083Z,95546.53
2022-09-28T07:30:44.257Z,95549.09
2022-09-28T07:33:12.551Z,95557.66
2022-09-28T07:35:39.060Z,95555.13
2022-09-28T07:38:06.517Z,95569.59
2022-09-28T07:40:52.347Z,95576.41
2022-09-28T07:43:21.780Z,95571.28
2022-09-28T07:45:50.837Z,95570.50
2022-09-28T07:48:18.621Z,95586.66
2022-09-28T07:50:50.230Z,95584.09
2022-09-28T07:53:16.708Z,95588.44
2022-09-28T07:55:43.247Z,95594.34
2022-09-28T07:58:09.739Z,95599.50
2022-09-28T08:00:36.207Z,95600.34
2022-09-28T08:03:02.940Z,95598.69
2022-09-28T08:05:31.240Z,95602.06
2022-09-28T08:07:59.592Z,95613.16
2022-09-28T08:10:26.381Z,95619.16
2022-09-28T08:12:59.223Z,95628.53
2022-09-28T08:15:29.552Z,95619.97
2022-09-28T08:17:57.995Z,95637.06
2022-09-28T08:20:51.343Z,95635.34
2022-09-28T08:23:18.345Z,95631.97
2022-09-28T08:25:52.552Z,95641.34
2022-09-28T08:28:19.040Z,95641.31
2022-09-28T08:30:45.887Z,95638.75
2022-09-28T08:33:17.573Z,95638.75
2022-09-28T08:35:44.806Z,95638.75
2022-09-28T08:38:11.364Z,95632.78
2022-09-28T08:40:44.792Z,95651.59
2022-09-28T08:43:41.873Z,95650.72
2022-09-28T08:46:08.576Z,95646.44
2022-09-28T08:49:06.646Z,95657.59
2022-09-28T08:51:42.507Z,95649.03
2022-09-28T08:54:25.934Z,95661.84
2022-09-28T08:56:59.120Z,95660.97
2022-09-28T08:59:29.730Z,95660.19
2022-09-28T09:01:58.588Z,95665.28
2022-09-28T09:04:25.249Z,95677.22
2022-09-28T09:07:00.658Z,95678.94
2022-09-28T09:09:55.157Z,95667.00
2022-09-28T09:12:21.560Z,95680.66
2022-09-28T09:15:00.205Z,95677.22
2022-09-28T09:17:36.545Z,95678.09
2022-09-28T09:20:19.426Z,95666.19
2022-09-28T09:23:10.594Z,95681.50
2022-09-28T09:26:26.139Z,95675.56
2022-09-28T09:29:20.781Z,95681.50
2022-09-28T09:31:53.396Z,95679.81
2022-09-28T09:34:32.976Z,95670.50
2022-09-28T09:37:30.561Z,95684.06
2022-09-28T09:40:11.001Z,95667.03
2022-09-28T09:42:40.435Z,95684.06
2022-09-28T09:45:16.188Z,95668.75
2022-09-28T09:47:50.756Z,95682.41
2022-09-28T09:50:52.044Z,95676.41
2022-09-28T09:53:38.387Z,95677.25
2022-09-28T09:56:15.239Z,95679.81
2022-09-28T09:58:46.167Z,95664.50
2022-09-28T10:01:13.910Z,95677.31
2022-09-28T10:03:42.637Z,95690.94
2022-09-28T10:06:12.127Z,95678.19
2022-09-28T10:08:44.395Z,95688.41
2022-09-28T10:11:28.190Z,95700.34
2022-09-28T10:13:55.266Z,95685.84
2022-09-28T10:16:21.778Z,95691.81
2022-09-28T10:18:49.679Z,95710.59
2022-09-28T10:21:18.496Z,95692.69
2022-09-28T10:23:45.103Z,95728.56
2022-09-28T10:26:25.276Z,95726.00
2022-09-28T10:28:59.161Z,95716.59
2022-09-28T10:31:39.164Z,95712.31
2022-09-28T10:34:06.902Z,95708.06
2022-09-28T10:36:38.325Z,95585.50
2022-09-28T10:39:06.025Z,95713.19
2022-09-28T10:41:32.505Z,95711.47
2022-09-28T10:44:08.827Z,95618.72
2022-09-28T10:46:35.470Z,95718.31
2022-09-28T10:49:12.451Z,95718.31
2022-09-28T10:51:49.772Z,95720.00
2022-09-28T10:54:20.960Z,95726.84
2022-09-28T10:56:48.100Z,95733.69
2022-09-28T10:59:29.528Z,95741.38
2022-09-28T11:02:01.076Z,95739.66
2022-09-28T11:04:29.040Z,95731.97
2022-09-28T11:09:38.896Z,95733.66
2022-09-28T11:12:06.090Z,95716.59
2022-09-28T11:14:32.464Z,95723.41
2022-09-28T11:17:20.280Z,95730.25
2022-09-28T11:19:46.751Z,95734.53
2022-09-28T11:22:25.067Z,95734.53
2022-09-28T11:24:51.860Z,95727.69
2022-09-28T11:27:27.600Z,95731.09
2022-09-28T11:30:03.262Z,95720.00
2022-09-28T11:32:31.759Z,95733.66
2022-09-28T11:35:00.596Z,95723.41
2022-09-28T11:37:40.580Z,95721.72
2022-09-28T11:40:16.692Z,95717.44
2022-09-28T11:43:21.004Z,95720.84
2022-09-28T11:45:57.711Z,95714.84
2022-09-28T11:48:27.056Z,95719.97
2022-09-28T11:50:56.822Z,95697.81
2022-09-28T11:54:01.851Z,95713.16
2022-09-28T11:56:38.856Z,95719.16
2022-09-28T11:59:14.657Z,95712.31
2022-09-28T12:01:48.059Z,95724.28
2022-09-28T12:04:25.193Z,95721.69
2022-09-28T12:07:09.212Z,95715.72
2022-09-28T12:09:53.375Z,95730.22
2022-09-28T12:12:32.732Z,95741.34
2022-09-28T12:15:05.335Z,95731.09
2022-09-28T12:17:38.984Z,95737.91
2022-09-28T12:20:20.704Z,95733.66
2022-09-28T12:23:00.568Z,95739.66
2022-09-28T12:25:28.251Z,95736.22
2022-09-28T12:28:03.345Z,95740.50
2022-09-28T12:30:33.250Z,95728.56
2022-09-28T12:33:12.293Z,95747.34
2022-09-28T12:35:47.930Z,95749.91
2022-09-28T12:38:36.188Z,95748.19
2022-09-28T12:41:42.386Z,95745.63
2022-09-28T12:44:25.656Z,95749.06
2022-09-28T12:46:55.234Z,95749.06
2022-09-28T12:53:20.081Z,95753.31
2022-09-28T12:56:04.636Z,95754.19
2022-09-28T12:58:50.541Z,95761.00
2022-09-28T13:01:32.340Z,95761.00
2022-09-28T13:04:35.088Z,95764.44
2022-09-28T13:07:19.969Z,95760.19
2022-09-28T13:10:16.761Z,95766.16
2022-09-28T13:12:53.316Z,95761.88
2022-09-28T13:15:27.775Z,95764.44
2022-09-28T13:18:02.155Z,95763.59
2022-09-28T13:20:50.557Z,95757.63
2022-09-28T13:23:24.033Z,95760.19
2022-09-28T13:25:57.255Z,95760.19
2022-09-28T13:28:27.253Z,95761.03
2022-09-28T13:30:54.848Z,95758.44
2022-09-28T13:33:47.632Z,95765.31
2022-09-28T13:36:29.057Z,95765.31
2022-09-28T13:38:59.475Z,95755.91
2022-09-28T13:41:32.132Z,95764.44
2022-09-28T13:44:08.161Z,95773.84
2022-09-28T13:46:49.847Z,95770.44
2022-09-28T13:49:24.413Z,95767.88
2022-09-28T13:51:51.721Z,95762.75
2022-09-28T13:54:27.385Z,95773.00
2022-09-28T13:57:11.308Z,95767.00
2022-09-28T14:00:15.904Z,95767.88
2022-09-28T14:02:45.806Z,95767.00
2022-09-28T14:05:21.621Z,95758.44
2022-09-28T14:08:09.124Z,95767.00
2022-09-28T14:10:51.942Z,95772.13
2022-09-28T14:13:43.529Z,95767.88
2022-09-28T14:16:20.567Z,95775.56
2022-09-28T14:18:53.699Z,95777.25
2022-09-28T14:21:40.216Z,95772.13
2022-09-28T14:24:09.288Z,95769.56
2022-09-28T14:26:41.794Z,95768.72
2022-09-28T14:29:28.469Z,95765.31
2022-09-28T14:31:56.760Z,95761.88
2022-09-28T14:34:32.380Z,95770.44
2022-09-28T14:37:37.260Z,95773.00
2022-09-28T14:40:45.829Z,95769.56
2022-09-28T14:43:47.336Z,95769.59
2022-09-28T14:46:19.773Z,95772.16
2022-09-28T14:48:50.233Z,95770.44
2022-09-28T14:51:33.029Z,95771.25
2022-09-28T14:54:10.467Z,95776.38
2022-09-28T14:56:52.048Z,95776.38
2022-09-28T14:59:19.215Z,95781.50
2022-09-28T15:01:55.501Z,95784.94
2022-09-28T15:04:23.205Z,95779.81
2022-09-28T15:06:50.894Z,95787.50
2022-09-28T15:09:33.703Z,95783.28
2022-09-28T15:12:03.589Z,95780.72
2022-09-28T15:14:33.451Z,95778.13
2022-09-28T15:17:03.397Z,95761.91
2022-09-28T15:19:41.263Z,95776.38
2022-09-28T15:22:17.301Z,95786.63
2022-09-28T15:25:02.841Z,95787.50
2022-09-28T15:27:36.747Z,95778.97
2022-09-28T15:30:27.987Z,95789.19
2022-09-28T15:32:56.776Z,95795.19
2022-09-28T15:35:26.938Z,95796.09
2022-09-28T15:37:54.307Z,95783.28
2022-09-28T15:40:37.754Z,95800.31
2022-09-28T15:43:19.659Z,95790.06
2022-09-28T15:45:46.159Z,95805.44
2022-09-28T15:48:30.977Z,95789.19
2022-09-28T15:51:10.867Z,95797.75
2022-09-28T15:53:42.205Z,95675.94
2022-09-28T15:56:10.271Z,95790.06
2022-09-28T15:58:37.656Z,95789.19
2022-09-28T16:01:27.705Z,95790.06
2022-09-28T16:03:54.743Z,95802.00
2022-09-28T16:06:21.355Z,95802.88
2022-09-28T16:08:50.387Z,95809.69
2022-09-28T16:11:31.823Z,95801.19
2022-09-28T16:14:08.888Z,95816.56
2022-09-28T16:16:40.253Z,95810.56
2022-09-28T16:19:20.062Z,95815.69
2022-09-28T16:21:47.030Z,95815.69
2022-09-28T16:24:31.114Z,95808.03
2022-09-28T16:27:01.532Z,95826.81
2022-09-28T16:29:41.257Z,95820.81
2022-09-28T16:32:26.142Z,95817.41
2022-09-28T16:35:11.548Z,95818.28
2022-09-28T16:37:40.825Z,95814.84
2022-09-28T16:40:08.714Z,95819.97
2022-09-28T16:42:35.448Z,95805.50
2022-09-28T16:45:05.218Z,95821.72
2022-09-28T16:47:34.331Z,95827.66
2022-09-28T16:50:02.326Z,95821.72
2022-09-28T16:52:47.220Z,95814.03
2022-09-28T16:55:40.465Z,95822.53
2022-09-28T16:58:04.680Z,95826.84
2022-09-28T17:00:31.820Z,95834.53
2022-09-28T17:02:58.528Z,95827.69
2022-09-28T17:05:25.500Z,95825.09
2022-09-28T17:07:59.559Z,95835.34
2022-09-28T17:10:50.137Z,95836.22
2022-09-28T17:13:31.460Z,95832.78
2022-09-28T17:15:58.300Z,95835.34
2022-09-28T17:18:24.926Z,95841.34
2022-09-28T17:20:51.991Z,95838.78
2022-09-28T17:25:49.902Z,95842.22
2022-09-28T17:28:24.286Z,95837.91
2022-09-28T17:30:50.811Z,95841.34
2022-09-28T17:33:17.404Z,95840.47
2022-09-28T17:35:43.956Z,95846.47
2022-09-28T17:38:14.459Z,95839.66
2022-09-28T17:40:41.711Z,95850.72
2022-09-28T17:43:08.315Z,95856.72
2022-09-28T17:45:39.402Z,95831.97
2022-09-28T17:48:09.005Z,95851.59
2022-09-28T17:50:35.783Z,95850.75
2022-09-28T17:53:11.181Z,95856.72
2022-09-28T17:55:38.117Z,95855.03
2022-09-28T17:58:21.428Z,95863.53
2022-09-28T18:00:48.910Z,95864.41
2022-09-28T18:03:19.985Z,95864.41
2022-09-28T18:05:48.269Z,95861.00
2022-09-28T18:08:17.799Z,95869.53
2022-09-28T18:10:46.282Z,95868.66
2022-09-28T18:13:13.599Z,95864.41
2022-09-28T18:15:40.121Z,95868.66
2022-09-28T18:18:09.475Z,95872.09
2022-09-28T18:20:36.540Z,95872.09
2022-09-28T18:23:03.292Z,95883.19
2022-09-28T18:25:30.039Z,95875.50
2022-09-28T18:27:57.522Z,95884.91
2022-09-28T18:30:24.714Z,95876.34
2022-09-28T18:32:51.303Z,95885.75
2022-09-28T18:35:22.626Z,95888.31
2022-09-28T18:37:49.938Z,95892.59
2022-09-28T18:40:16.494Z,95893.44
2022-09-28T18:42:43.037Z,95895.16
2022-09-28T18:45:13.164Z,95903.69
2022-09-28T18:47:39.960Z,95890.91
2022-09-28T18:50:07.037Z,95901.97
2022-09-28T18:52:36.597Z,95905.41
2022-09-28T18:55:04.073Z,95908.84
2022-09-28T18:57:33.508Z,95904.53
2022-09-28T19:00:00.847Z,95908.81
2022-09-28T19:02:27.563Z,95916.50
2022-09-28T19:04:54.147Z,95923.34
2022-09-28T19:07:21.244Z,95920.78
2022-09-28T19:09:47.722Z,95929.34
2022-09-28T19:12:14.255Z,95937.84
2022-09-28T19:14:40.787Z,95938.72
2022-09-28T19:17:07.280Z,95940.41
2022-09-28T19:19:33.822Z,95944.72
2022-09-28T19:22:00.340Z,95941.28
2022-09-28T19:24:26.953Z,95941.28
2022-09-28T19:26:53.599Z,95942.13
2022-09-28T19:29:20.401Z,95939.56
2022-09-28T19:31:46.982Z,95941.28
2022-09-28T19:34:14.406Z,95948.09
2022-09-28T19:36:41.067Z,95942.97
2022-09-28T19:39:07.833Z,95954.09
2022-09-28T19:41:43.338Z,95946.41
2022-09-28T19:44:27.231Z,95960.09
2022-09-28T19:46:54.638Z,95968.59
2022-09-28T19:49:22.260Z,95962.66
2022-09-28T19:54:38.102Z,95971.16
2022-09-28T19:57:08.677Z,95968.59
2022-09-28T19:59:36.641Z,95971.16
2022-09-28T20:02:03.935Z,95977.16
2022-09-28T20:04:30.471Z,95986.53
2022-09-28T20:06:56.951Z,95978.03
2022-09-28T20:09:23.440Z,95982.28
2022-09-28T20:11:51.793Z,95989.97
2022-09-28T20:14:23.366Z,95986.53
2022-09-28T20:16:52.286Z,95981.41
2022-09-28T20:19:21.475Z,95979.72
2022-09-28T20:21:48.351Z,95979.72
2022-09-28T20:24:17.038Z,95989.97
2022-09-28T20:26:44.341Z,95989.97
2022-09-28T20:29:10.875Z,95995.09
2022-09-28T20:31:37.459Z,95991.66
2022-09-28T20:34:04.670Z,95988.28
2022-09-28T20:36:33.903Z,95997.66
2022-09-28T20:39:03.291Z,95995.09
2022-09-28T20:41:36.771Z,96000.22
2022-09-28T20:44:14.276Z,96001.09
2022-09-28T20:46:40.940Z,96006.22
2022-09-28T20:49:07.760Z,96014.75
2022-09-28T20:51:34.422Z,96011.34
2022-09-28T20:54:00.976Z,96025.00
2022-09-28T20:56:29.050Z,96019.84
2022-09-28T20:58:55.735Z,96014.75
2022-09-28T21:01:23.933Z,96011.34
2022-09-28T21:03:51.496Z,96007.91
2022-09-28T21:06:18.782Z,96001.94
2022-09-28T21:08:45.834Z,96007.03
2022-09-28T21:11:13.183Z,96013.91
2022-09-28T21:13:43.127Z,96007.91
2022-09-28T21:16:10.899Z,96019.03
2022-09-28T21:18:38.223Z,96016.47
2022-09-28T21:21:15.319Z,96019.03
2022-09-28T21:23:44.830Z,96020.72
2022-09-28T21:26:24.339Z,96019.03
2022-09-28T21:28:57.937Z,96016.47
2022-09-28T21:31:28.806Z,96019.88
2022-09-28T21:33:56.469Z,96021.59
2022-09-28T21:36:22.995Z,96016.47
2022-09-28T21:38:49.464Z,96014.75
2022-09-28T21:41:16.325Z,96027.56
2022-09-28T21:43:42.808Z,96018.16
2022-09-28T21:46:09.778Z,96026.72
2022-09-28T21:48:36.254Z,96019.03
2022-09-28T21:51:07.139Z,96013.91
2022-09-28T21:53:35.035Z,96024.16
2022-09-28T21:56:01.888Z,96016.47
2022-09-28T21:58:30.033Z,96011.34
2022-09-28T22:01:03.117Z,96019.88
2022-09-28T22:03:30.298Z,96004.50
2022-09-28T22:05:56.773Z,96011.34
2022-09-28T22:08:23.571Z,96015.59
2022-09-28T22:11:03.280Z,96006.22
2022-09-28T22:13:30.364Z,96019.88
2022-09-28T22:15:58.684Z,96014.75
2022-09-28T22:18:26.204Z,96009.63
2022-09-28T22:21:06.495Z,96016.47
2022-09-28T22:23:33.329Z,96020.72
2022-09-28T22:26:05.290Z,96025.84
2022-09-28T22:28:31.799Z,96026.72
2022-09-28T22:30:58.391Z,96019.03
2022-09-28T22:33:24.979Z,96026.72
2022-09-28T22:35:51.509Z,96027.56
2022-09-28T22:38:18.842Z,96026.72
2022-09-28T22:40:54.623Z,96030.13
2022-09-28T22:43:25.015Z,96027.56
2022-09-28T22:46:01.909Z,96014.75
2022-09-28T22:48:28.636Z,96019.88
2022-09-28T22:50:55.134Z,96025.00
2022-09-28T22:53:21.594Z,96030.97
2022-09-28T22:55:48.123Z,96027.56
2022-09-28T22:58:14.669Z,96030.13
2022-09-28T23:00:41.211Z,96030.13
2022-09-28T23:03:07.804Z,96036.97
2022-09-28T23:05:34.291Z,96033.53
2022-09-28T23:08:00.942Z,96035.25
2022-09-28T23:10:27.447Z,96037.81
2022-09-28T23:12:54.931Z,96029.28
2022-09-28T23:15:22.338Z,96041.25
2022-09-28T23:17:52.725Z,96036.09
2022-09-28T23:20:22.156Z,96037.81
2022-09-28T23:22:48.697Z,96041.25
2022-09-28T23:25:16.206Z,96034.41
2022-09-28T23:27:46.988Z,96038.66
2022-09-28T23:30:14.639Z,96040.38
2022-09-28T23:32:41.311Z,96033.53
2022-09-28T23:35:07.910Z,96031.84
2022-09-28T23:37:34.453Z,96040.38
2022-09-28T23:40:02.772Z,96036.13
2022-09-28T23:42:29.339Z,96036.13
2022-09-28T23:44:55.870Z,96038.66
2022-09-28T23:47:22.419Z,96036.97
2022-09-28T23:49:48.890Z,96025.88
2022-09-28T23:52:15.434Z,96034.41
2022-09-28T23:54:42.095Z,96042.94
2022-09-28T23:57:08.584Z,96039.53
2022-09-28T23:59:35.055Z,96038.66
